Time;durP1;ratioP1;P1;durP2;ratioP2;P2;SDS_P1;SDS_P2;PMS_P1;PMS_P2;Temp;Humidity;BMP_temperature;BMP_pressure;BME280_temperature;BME280_humidity;BME280_pressure;Samples;Min_cycle;Max_cycle;Signal;HPM_P1;HPM_P2
2023/05/24 04:12:40;;;;;;;14.10;8.85;;;;;;;18.78;86.97;100237.97;5603622;31;129022;-57
2023/05/24 04:15:42;;;;;;;12.27;10.15;;;;;;;18.78;86.97;100237.97;5601347;31;33468;-58
2023/05/24 04:18:45;;;;;;;12.77;9.82;;;;;;;18.31;88.14;100243.75;5603355;31;34212;-58
2023/05/24 04:21:49;;;;;;;11.55;8.63;;;;;;;18.35;88.05;100253.94;5603460;31;33510;-58
2023/05/24 04:24:51;;;;;;;11.90;9.25;;;;;;;18.44;87.92;100251.91;5602299;31;33530;-58
2023/05/24 04:27:54;;;;;;;12.07;8.95;;;;;;;18.57;86.97;100250.00;5583414;31;33744;-58
2023/05/24 04:30:58;;;;;;;12.68;9.10;;;;;;;18.68;86.66;100254.69;5583530;31;33060;-58
2023/05/24 04:34:01;;;;;;;10.70;9.20;;;;;;;18.74;86.04;100261.50;5583361;31;34370;-58
2023/05/24 04:37:04;;;;;;;10.75;9.63;;;;;;;18.76;87.34;100256.50;5583389;31;34799;-58
2023/05/24 04:40:07;;;;;;;11.12;9.07;;;;;;;18.81;86.64;100265.56;5583516;32;34230;-58
2023/05/24 04:43:10;;;;;;;12.65;9.20;;;;;;;18.81;87.45;100254.69;5583667;31;33622;-58
2023/05/24 04:46:13;;;;;;;15.00;9.52;;;;;;;18.85;86.93;100259.12;5588245;31;33764;-58
2023/05/24 04:49:15;;;;;;;10.82;8.70;;;;;;;18.86;86.64;100254.50;5564082;32;33610;-58
2023/05/24 04:52:18;;;;;;;10.35;8.45;;;;;;;18.89;88.45;100259.25;5573658;32;33393;-58
2023/05/24 04:55:20;;;;;;;10.57;8.43;;;;;;;18.90;88.45;100253.47;5583118;31;34288;-58
2023/05/24 04:58:22;;;;;;;15.48;9.05;;;;;;;18.94;89.36;100256.28;5583533;32;33651;-58
2023/05/24 05:01:24;;;;;;;12.43;9.80;;;;;;;18.87;86.11;100264.22;5583027;32;34345;-58
2023/05/24 05:04:27;;;;;;;13.27;9.55;;;;;;;18.90;85.58;100258.91;5581969;32;33589;-58
2023/05/24 05:07:29;;;;;;;11.12;10.00;;;;;;;18.92;86.73;100269.44;5582790;31;33702;-58
2023/05/24 05:10:32;;;;;;;12.00;10.35;;;;;;;18.93;86.00;100274.50;5583016;32;33629;-58
2023/05/24 05:13:34;;;;;;;14.55;10.52;;;;;;;19.00;88.09;100280.19;5582138;31;33675;-58
2023/05/24 05:16:37;;;;;;;13.07;10.75;;;;;;;18.95;85.48;100276.91;5582900;32;33762;-58
2023/05/24 05:19:40;;;;;;;12.90;11.18;;;;;;;18.92;86.23;100272.94;5582787;31;33627;-58
2023/05/24 05:22:46;;;;;;;13.82;12.10;;;;;;;19.00;85.43;100277.47;5571507;32;33550;-58
2023/05/24 05:25:48;;;;;;;14.18;12.10;;;;;;;18.91;85.19;100276.78;5569236;32;33599;-58
2023/05/24 05:28:51;;;;;;;15.55;12.30;;;;;;;18.83;85.52;100285.03;5561092;32;33749;-57
2023/05/24 05:31:54;;;;;;;14.07;12.63;;;;;;;18.79;86.54;100279.50;5551629;32;34392;-58
2023/05/24 05:34:57;;;;;;;15.52;12.60;;;;;;;18.83;85.79;100283.09;5550464;32;33694;-58
2023/05/24 05:37:59;;;;;;;13.57;12.07;;;;;;;18.86;86.52;100278.94;5550499;32;33664;-58
2023/05/24 05:41:04;;;;;;;18.30;13.27;;;;;;;18.82;85.33;100275.31;5563470;32;33546;-58
2023/05/24 05:44:06;;;;;;;14.98;12.30;;;;;;;19.00;85.59;100280.19;5569742;32;33612;-58
2023/05/24 05:47:09;;;;;;;14.20;12.50;;;;;;;19.14;85.34;100279.88;5565695;32;33769;-58
2023/05/24 05:50:11;;;;;;;15.63;12.45;;;;;;;19.28;83.26;100278.72;5567348;32;34237;-58
2023/05/24 05:53:15;;;;;;;16.05;11.80;;;;;;;19.35;82.87;100282.44;5569071;32;33328;-58
2023/05/24 05:56:17;;;;;;;12.90;11.55;;;;;;;19.53;82.85;100282.97;5569432;32;34315;-58
2023/05/24 05:59:19;;;;;;;11.40;10.30;;;;;;;19.67;81.51;100279.94;5569427;32;34214;-58
2023/05/24 06:02:22;;;;;;;11.52;10.18;;;;;;;19.70;79.71;100287.38;5569577;32;33702;-58
2023/05/24 06:05:24;;;;;;;12.73;10.70;;;;;;;19.64;80.21;100294.22;5567100;32;33573;-58
2023/05/24 06:08:29;;;;;;;13.38;10.55;;;;;;;19.70;79.48;100277.31;5561591;32;33685;-58
2023/05/24 06:11:32;;;;;;;11.50;10.30;;;;;;;19.88;79.53;100301.53;5564041;32;33791;-57
2023/05/24 06:14:37;;;;;;;12.35;10.32;;;;;;;20.00;78.14;100297.97;5563749;32;34275;-56
2023/05/24 06:17:41;;;;;;;11.57;10.00;;;;;;;19.96;79.05;100292.41;5560346;32;34237;-56
2023/05/24 06:20:43;;;;;;;12.00;9.60;;;;;;;19.82;78.19;100300.97;5555939;32;33408;-56
2023/05/24 06:23:46;;;;;;;22.95;11.30;;;;;;;19.98;79.66;100300.25;5568134;32;34299;-57
2023/05/24 06:26:50;;;;;;;11.88;10.68;;;;;;;19.94;78.65;100295.50;5569095;32;34207;-57
2023/05/24 06:29:52;;;;;;;15.18;10.98;;;;;;;19.66;77.56;100302.81;5551596;32;34237;-57
2023/05/24 06:32:55;;;;;;;14.10;10.30;;;;;;;19.64;79.30;100311.31;5565932;32;33602;-57
2023/05/24 06:35:57;;;;;;;12.10;10.27;;;;;;;19.66;78.79;100310.97;5567526;32;34336;-56
2023/05/24 06:39:00;;;;;;;12.30;10.75;;;;;;;19.58;78.83;100318.09;5568469;32;33742;-56
2023/05/24 06:42:03;;;;;;;13.20;10.75;;;;;;;19.80;80.32;100308.69;5562617;32;33575;-57
2023/05/24 06:45:07;;;;;;;13.18;9.05;;;;;;;19.99;79.46;100315.44;5564246;32;34405;-57
2023/05/24 06:48:10;;;;;;;15.43;10.18;;;;;;;20.11;82.13;100318.13;5559698;32;32719;-56
2023/05/24 06:51:12;;;;;;;13.75;10.82;;;;;;;20.08;78.51;100324.25;5568711;32;33700;-56
2023/05/24 06:54:15;;;;;;;14.38;10.60;;;;;;;20.13;79.01;100324.00;5559411;32;33183;-56
2023/05/24 06:57:17;;;;;;;18.05;10.88;;;;;;;20.22;77.44;100332.03;5566157;32;33072;-57
2023/05/24 07:00:20;;;;;;;11.10;9.95;;;;;;;20.25;76.63;100332.13;5558757;32;33738;-56
2023/05/24 07:03:22;;;;;;;10.13;9.13;;;;;;;20.44;78.85;100334.19;5557551;32;33614;-57
2023/05/24 07:06:25;;;;;;;10.75;9.07;;;;;;;20.46;78.19;100334.63;5569176;32;33593;-56
2023/05/24 07:09:28;;;;;;;14.32;10.10;;;;;;;20.65;77.76;100334.78;5566693;32;34392;-56
2023/05/24 07:12:31;;;;;;;11.32;9.18;;;;;;;20.73;74.26;100337.69;5555563;32;33542;-56
2023/05/24 07:15:33;;;;;;;10.88;9.68;;;;;;;20.62;73.96;100331.97;5568603;32;33563;-56
2023/05/24 07:18:36;;;;;;;13.10;9.27;;;;;;;20.76;75.03;100337.00;5566295;32;33656;-56
2023/05/24 07:21:38;;;;;;;10.98;9.55;;;;;;;20.79;73.28;100333.56;5566978;32;33729;-57
2023/05/24 07:24:41;;;;;;;12.15;9.38;;;;;;;20.71;74.77;100340.00;5568489;32;33957;-57
2023/05/24 07:27:43;;;;;;;12.07;10.27;;;;;;;20.77;75.12;100341.31;5568313;32;33719;-57
2023/05/24 07:30:46;;;;;;;12.27;9.88;;;;;;;20.67;74.81;100344.56;5567578;32;34327;-56
2023/05/24 07:33:48;;;;;;;10.90;9.45;;;;;;;20.81;77.08;100348.44;5566465;32;33768;-57
2023/05/24 07:36:51;;;;;;;14.00;10.38;;;;;;;20.98;73.54;100347.31;5568289;31;32864;-56
2023/05/24 07:39:53;;;;;;;10.70;9.60;;;;;;;20.98;72.73;100352.75;5565277;32;34345;-57
2023/05/24 07:42:55;;;;;;;11.45;9.40;;;;;;;20.91;72.54;100349.84;5568053;32;34311;-57
2023/05/24 07:45:58;;;;;;;10.38;9.23;;;;;;;20.97;72.30;100362.09;5566705;32;33771;-57
2023/05/24 07:49:00;;;;;;;10.93;9.70;;;;;;;21.02;73.00;100359.06;5568553;32;33565;-56
2023/05/24 07:52:03;;;;;;;10.57;9.30;;;;;;;21.13;72.37;100359.37;5567197;32;33663;-56
2023/05/24 07:55:06;;;;;;;10.15;9.13;;;;;;;21.20;72.34;100367.72;5567910;32;33530;-56
2023/05/24 07:58:10;;;;;;;11.77;10.15;;;;;;;21.26;71.91;100365.53;5567408;32;34375;-57
2023/05/24 08:01:13;;;;;;;13.02;11.02;;;;;;;21.22;71.35;100373.59;5562667;32;32268;-57
2023/05/24 08:04:15;;;;;;;12.60;10.40;;;;;;;21.16;70.94;100375.03;5565770;32;33561;-57
2023/05/24 08:07:18;;;;;;;12.05;10.80;;;;;;;21.20;70.97;100377.84;5568356;32;34393;-56
2023/05/24 08:10:24;;;;;;;11.93;10.73;;;;;;;21.26;71.83;100374.50;5567863;32;33476;-57
2023/05/24 08:13:26;;;;;;;12.35;11.15;;;;;;;21.30;70.61;100375.38;5549392;32;33633;-56
2023/05/24 08:16:30;;;;;;;12.45;11.15;;;;;;;21.29;70.56;100376.53;5564570;32;33924;-56
2023/05/24 08:19:34;;;;;;;14.30;10.82;;;;;;;21.42;70.06;100379.94;5565004;32;33213;-56
2023/05/24 08:22:39;;;;;;;14.52;10.80;;;;;;;21.44;71.25;100376.88;5567757;32;33641;-57
2023/05/24 08:25:41;;;;;;;14.27;11.75;;;;;;;21.49;69.81;100373.88;5566144;32;33585;-56
2023/05/24 08:28:44;;;;;;;16.58;11.02;;;;;;;21.60;69.39;100374.12;5565897;32;33555;-59
2023/05/24 08:31:46;;;;;;;17.30;10.82;;;;;;;21.69;71.70;100369.25;5561656;32;34281;-59
2023/05/24 08:34:49;;;;;;;17.90;11.35;;;;;;;21.69;70.82;100377.44;5561286;32;34256;-59
2023/05/24 08:37:52;;;;;;;11.77;10.50;;;;;;;21.81;71.69;100378.12;5566149;32;33700;-59
2023/05/24 08:40:56;;;;;;;12.35;9.75;;;;;;;21.78;68.12;100389.75;5564766;32;34496;-59
2023/05/24 08:44:01;;;;;;;10.85;9.63;;;;;;;21.63;66.80;100389.78;5566856;32;33819;-59
2023/05/24 08:47:05;;;;;;;10.77;7.95;;;;;;;21.58;68.85;100401.75;5566115;32;34259;-59
2023/05/24 08:50:09;;;;;;;13.03;8.97;;;;;;;21.62;68.47;100402.63;5566573;32;33768;-59
2023/05/24 08:53:13;;;;;;;12.18;8.65;;;;;;;21.71;66.72;100403.22;5558959;32;33173;-59
2023/05/24 08:56:16;;;;;;;13.02;8.65;;;;;;;21.70;67.15;100406.31;5565404;32;33078;-59
2023/05/24 08:59:22;;;;;;;;;;;;;;;21.51;67.52;100405.09;5561310;32;33606;-59
2023/05/24 09:02:25;;;;;;;10.98;8.35;;;;;;;21.54;67.38;100407.13;5569835;32;34638;-59
2023/05/24 09:05:29;;;;;;;10.75;7.70;;;;;;;21.58;68.12;100418.91;5565012;32;34453;-59
2023/05/24 09:08:33;;;;;;;9.82;8.25;;;;;;;21.44;65.98;100415.84;5560249;32;33583;-59
2023/05/24 09:11:40;;;;;;;9.52;8.45;;;;;;;21.39;65.15;100420.75;5552082;32;33570;-59
2023/05/24 09:14:46;;;;;;;9.77;7.47;;;;;;;21.33;66.76;100422.94;5560674;32;34323;-59
2023/05/24 09:17:48;;;;;;;9.18;7.25;;;;;;;21.44;66.72;100428.69;5568438;32;34328;-59
2023/05/24 09:20:52;;;;;;;10.18;7.35;;;;;;;21.66;66.35;100428.06;5568945;32;33785;-59
2023/05/24 09:23:56;;;;;;;12.75;7.25;;;;;;;21.66;64.01;100430.81;5562278;32;33582;-59
2023/05/24 09:27:05;;;;;;;7.72;6.93;;;;;;;21.61;65.34;100417.41;5551476;32;33656;-56
2023/05/24 09:30:09;;;;;;;8.80;7.18;;;;;;;21.46;65.83;100421.75;5566799;32;33627;-57
2023/05/24 09:33:13;;;;;;;8.43;7.15;;;;;;;21.57;66.70;100420.06;5560613;32;34553;-57
2023/05/24 09:36:17;;;;;;;8.48;7.57;;;;;;;21.62;64.79;100423.66;5567091;32;33349;-57
2023/05/24 09:39:20;;;;;;;8.88;7.97;;;;;;;21.72;67.45;100417.66;5565956;32;34637;-57
2023/05/24 09:42:26;;;;;;;7.97;7.18;;;;;;;21.56;65.73;100425.88;5560902;32;34034;-57
2023/05/24 09:45:29;;;;;;;10.90;7.35;;;;;;;21.57;66.59;100420.06;5567532;32;34633;-57
2023/05/24 09:48:31;;;;;;;8.27;6.95;;;;;;;21.52;65.37;100414.88;5565122;31;34315;-58
2023/05/24 09:51:39;;;;;;;7.07;6.37;;;;;;;21.63;64.65;100414.34;5563777;32;33750;-58
2023/05/24 09:54:42;;;;;;;8.27;7.07;;;;;;;21.68;64.03;100416.78;5561300;32;34359;-58
2023/05/24 09:57:52;;;;;;;8.55;6.72;;;;;;;21.70;63.53;100414.50;5559958;32;33707;-58
2023/05/24 10:01:04;;;;;;;7.32;6.40;;;;;;;21.85;64.50;100424.59;5558606;32;33785;-58
2023/05/24 10:04:06;;;;;;;7.18;6.37;;;;;;;21.98;63.40;100415.12;5559308;32;33730;-58
2023/05/24 10:07:12;;;;;;;9.85;5.90;;;;;;;22.06;63.86;100416.09;5563279;32;33736;-58
2023/05/24 10:10:15;;;;;;;8.50;6.05;;;;;;;22.16;62.50;100414.78;5568547;32;33605;-58
2023/05/24 10:13:21;;;;;;;8.32;6.32;;;;;;;22.23;61.76;100406.75;5568594;32;33721;-58
2023/05/24 10:16:24;;;;;;;8.80;6.40;;;;;;;22.16;63.63;100409.34;5568280;32;33674;-58
2023/05/24 10:19:26;;;;;;;7.47;6.22;;;;;;;22.16;63.36;100403.88;5560164;32;34310;-58
2023/05/24 10:22:30;;;;;;;9.23;6.37;;;;;;;22.27;63.25;100402.13;5554613;32;34288;-58
2023/05/24 10:25:34;;;;;;;10.07;6.55;;;;;;;22.24;61.13;100409.09;5554497;32;33793;-58
2023/05/24 10:29:04;;;;;;;7.45;6.75;;;;;;;22.32;62.23;100409.25;5559064;32;33645;-57
2023/05/24 10:32:08;;;;;;;8.00;6.45;;;;;;;22.37;62.73;100423.41;5564410;32;34267;-58
2023/05/24 10:35:13;;;;;;;9.15;5.90;;;;;;;22.42;60.03;100409.50;5566096;32;33601;-58
2023/05/24 10:38:19;;;;;;;7.62;6.78;;;;;;;22.45;61.08;100403.31;5567536;32;33326;-58
2023/05/24 10:41:25;;;;;;;9.07;6.45;;;;;;;22.48;62.79;100402.59;5558872;32;33718;-58
2023/05/24 10:44:31;;;;;;;7.22;6.47;;;;;;;22.59;62.96;100404.75;5561860;32;33604;-58
2023/05/24 10:47:36;;;;;;;6.93;6.22;;;;;;;22.67;61.95;100400.97;5566651;32;33630;-58
2023/05/24 10:50:40;;;;;;;;;;;;;;;22.68;60.64;100402.56;5565909;32;33650;-58
2023/05/24 10:53:43;;;;;;;7.28;5.97;;;;;;;22.61;60.10;100391.50;5560332;32;34201;-58
2023/05/24 10:56:48;;;;;;;10.05;6.07;;;;;;;22.67;59.44;100393.56;5569069;32;33642;-58
2023/05/24 10:59:51;;;;;;;7.32;5.70;;;;;;;22.62;58.14;100395.81;5567507;32;35343;-58
2023/05/24 11:03:07;;;;;;;7.68;6.10;;;;;;;22.67;59.33;100390.03;5564899;32;34417;-58
2023/05/24 11:06:10;;;;;;;7.07;6.10;;;;;;;22.84;61.38;100392.31;5556218;32;33154;-58
2023/05/24 11:09:16;;;;;;;9.05;6.62;;;;;;;22.93;59.81;100392.91;5550057;32;33723;-58
2023/05/24 11:12:22;;;;;;;6.97;5.90;;;;;;;22.90;60.63;100396.34;5563403;32;34055;-58
2023/05/24 11:15:25;;;;;;;5.85;5.12;;;;;;;23.00;59.72;100394.19;5568752;32;33533;-58
2023/05/24 11:18:27;;;;;;;6.90;6.20;;;;;;;23.10;55.44;100396.31;5569128;32;33717;-58
2023/05/24 11:21:30;;;;;;;7.35;6.28;;;;;;;22.94;57.99;100396.44;5567848;32;34433;-58
2023/05/24 11:24:33;;;;;;;6.68;6.05;;;;;;;22.89;56.52;100385.78;5568543;32;34464;-58
2023/05/24 11:27:43;;;;;;;9.82;5.87;;;;;;;22.82;58.28;100380.19;5565493;32;33785;-58
2023/05/24 11:30:46;;;;;;;7.70;6.05;;;;;;;22.96;57.55;100386.72;5568651;32;34249;-58
2023/05/24 11:33:49;;;;;;;6.97;5.35;;;;;;;22.95;59.75;100382.41;5568404;32;33795;-58
2023/05/24 11:36:52;;;;;;;6.68;5.90;;;;;;;22.98;59.28;100375.44;5568805;32;33624;-58
2023/05/24 11:39:55;;;;;;;7.07;6.10;;;;;;;23.04;58.21;100378.63;5568384;32;33862;-58
2023/05/24 11:42:58;;;;;;;8.48;5.68;;;;;;;23.13;56.94;100379.97;5567995;32;33665;-58
2023/05/24 11:46:00;;;;;;;6.68;6.00;;;;;;;23.10;57.04;100375.22;5568100;32;33674;-58
2023/05/24 11:49:04;;;;;;;7.50;6.37;;;;;;;23.10;59.16;100372.50;5565689;32;33700;-58
2023/05/24 11:52:07;;;;;;;7.05;5.85;;;;;;;23.02;59.10;100368.06;5568112;32;34384;-58
2023/05/24 11:55:13;;;;;;;6.50;5.72;;;;;;;22.96;59.35;100372.25;5562588;32;33711;-58
2023/05/24 11:58:26;;;;;;;7.07;5.35;;;;;;;23.00;57.31;100358.66;5563904;32;33316;-58
2023/05/24 12:01:28;;;;;;;7.93;5.85;;;;;;;23.04;57.01;100370.44;5561524;32;34477;-58
2023/05/24 12:04:36;;;;;;;7.55;5.50;;;;;;;23.00;57.25;100364.12;5565322;32;33637;-58
2023/05/24 12:07:39;;;;;;;7.90;6.30;;;;;;;23.06;57.35;100357.97;5557562;32;34037;-58
2023/05/24 12:10:42;;;;;;;8.57;5.90;;;;;;;23.18;57.37;100352.34;5562867;32;34398;-58
2023/05/24 12:13:45;;;;;;;6.28;5.40;;;;;;;23.30;54.94;100361.50;5557283;32;33651;-58
2023/05/24 12:16:48;;;;;;;7.90;5.32;;;;;;;23.29;54.78;100366.16;5563645;32;34378;-58
2023/05/24 12:19:51;;;;;;;6.43;5.68;;;;;;;23.21;55.76;100353.53;5567215;32;34231;-58
2023/05/24 12:22:54;;;;;;;9.20;5.50;;;;;;;23.20;56.44;100369.16;5567450;32;33702;-58
2023/05/24 12:26:00;;;;;;;6.43;5.72;;;;;;;23.38;58.98;100369.44;5567620;32;33725;-58
2023/05/24 12:29:03;;;;;;;6.37;5.37;;;;;;;23.38;55.54;100365.94;5561616;32;33278;-58
2023/05/24 12:32:11;;;;;;;6.10;5.10;;;;;;;23.22;55.48;100374.25;5567326;32;33907;-58
2023/05/24 12:35:17;;;;;;;6.18;4.90;;;;;;;23.19;55.97;100366.78;5569900;32;34413;-56
2023/05/24 12:38:24;;;;;;;5.95;4.75;;;;;;;23.20;57.42;100371.09;5569858;32;33222;-57
2023/05/24 12:41:29;;;;;;;5.53;4.90;;;;;;;23.17;57.36;100360.88;5570205;32;33864;-57
2023/05/24 12:44:36;;;;;;;6.60;5.40;;;;;;;23.24;58.80;100360.22;5569828;32;33999;-57
2023/05/24 12:47:38;;;;;;;6.60;4.85;;;;;;;23.23;56.30;100350.44;5569882;32;34400;-57
2023/05/24 12:50:41;;;;;;;6.32;5.10;;;;;;;23.19;57.27;100348.44;5570279;32;33681;-57
2023/05/24 12:53:44;;;;;;;7.90;5.40;;;;;;;23.10;57.62;100350.62;5569891;32;33773;-57
2023/05/24 12:56:46;;;;;;;6.10;5.40;;;;;;;23.02;57.59;100345.41;5570111;32;33622;-57
2023/05/24 12:59:49;;;;;;;5.75;4.70;;;;;;;23.10;57.16;100341.63;5569691;32;33589;-57
2023/05/24 13:02:54;;;;;;;11.80;5.43;;;;;;;23.11;56.09;100338.53;5567812;32;33063;-56
2023/05/24 13:05:58;;;;;;;6.05;4.95;;;;;;;23.07;57.41;100339.63;5561029;32;34355;-57
2023/05/24 13:09:01;;;;;;;8.82;5.32;;;;;;;23.06;56.79;100340.78;5570015;32;33753;-57
2023/05/24 13:12:04;;;;;;;7.37;5.72;;;;;;;22.93;56.41;100340.19;5568777;32;33627;-57
2023/05/24 13:15:07;;;;;;;7.65;5.40;;;;;;;22.90;56.47;100336.19;5568497;32;34356;-56
2023/05/24 13:18:10;;;;;;;6.15;5.10;;;;;;;22.86;59.05;100338.09;5567561;32;33614;-57
2023/05/24 13:21:12;;;;;;;5.50;4.35;;;;;;;22.86;58.36;100338.09;5567217;32;33584;-56
2023/05/24 13:24:15;;;;;;;5.10;4.37;;;;;;;22.90;57.85;100330.72;5559503;32;33697;-56
2023/05/24 13:27:17;;;;;;;9.75;5.12;;;;;;;23.00;59.12;100325.84;5550016;32;34338;-57
2023/05/24 13:30:26;;;;;;;7.55;4.82;;;;;;;23.13;59.46;100321.75;5550487;32;34582;-57
2023/05/24 13:33:32;;;;;;;10.00;5.87;;;;;;;23.32;57.63;100321.69;5549909;32;33560;-57
2023/05/24 13:36:38;;;;;;;7.45;5.68;;;;;;;23.37;59.57;100323.28;5550337;32;33504;-56
2023/05/24 13:39:40;;;;;;;6.82;4.93;;;;;;;23.36;55.58;100321.72;5550299;32;33617;-57
2023/05/24 13:42:43;;;;;;;11.02;4.85;;;;;;;23.31;56.77;100311.91;5549777;32;33815;-57
2023/05/24 13:45:45;;;;;;;12.52;4.90;;;;;;;23.35;58.02;100328.37;5551043;32;33730;-57
2023/05/24 13:48:48;;;;;;;7.32;4.78;;;;;;;23.45;57.70;100316.78;5568153;32;34545;-57
2023/05/24 13:51:51;;;;;;;6.18;5.28;;;;;;;23.51;56.34;100317.25;5569583;32;33690;-57
2023/05/24 13:54:56;;;;;;;6.47;4.87;;;;;;;23.34;54.81;100313.09;5566800;32;34310;-57
2023/05/24 13:58:00;;;;;;;5.43;4.90;;;;;;;23.33;54.90;100312.31;5569613;32;33192;-57
2023/05/24 14:01:03;;;;;;;9.82;4.97;;;;;;;23.50;55.80;100310.19;5568578;32;33649;-57
2023/05/24 14:04:05;;;;;;;5.65;4.57;;;;;;;23.60;55.28;100306.81;5568539;32;33669;-56
2023/05/24 14:07:08;;;;;;;5.87;4.47;;;;;;;23.52;56.15;100299.69;5569657;32;33946;-57
2023/05/24 14:10:11;;;;;;;4.60;4.10;;;;;;;23.53;55.60;100314.94;5569643;32;34452;-57
2023/05/24 14:13:13;;;;;;;5.15;4.60;;;;;;;23.55;55.76;100307.16;5569346;32;34338;-57
2023/05/24 14:16:36;;;;;;;6.32;4.18;;;;;;;23.51;53.71;100298.91;5569826;32;34413;-57
2023/05/24 14:19:38;;;;;;;5.93;4.45;;;;;;;23.44;55.05;100306.97;5569337;32;31730;-57
2023/05/24 14:22:41;;;;;;;6.28;4.43;;;;;;;23.48;54.69;100304.28;5569394;32;34427;-57
2023/05/24 14:25:45;;;;;;;8.55;4.70;;;;;;;23.60;54.91;100309.56;5569334;32;33664;-57
2023/05/24 14:28:48;;;;;;;6.82;4.90;;;;;;;23.52;55.16;100310.63;5569527;32;33782;-57
2023/05/24 14:31:50;;;;;;;4.80;4.30;;;;;;;23.50;55.22;100318.41;5569374;32;33653;-57
2023/05/24 14:34:52;;;;;;;5.22;4.20;;;;;;;23.57;54.46;100310.28;5569049;32;33765;-57
2023/05/24 14:37:56;;;;;;;7.12;4.70;;;;;;;23.37;54.96;100307.66;5567760;32;33811;-56
2023/05/24 14:40:59;;;;;;;6.80;4.75;;;;;;;23.40;56.55;100312.41;5569345;32;33630;-57
2023/05/24 14:44:01;;;;;;;5.35;4.72;;;;;;;23.37;57.60;100313.12;5568963;32;34067;-57
2023/05/24 14:47:04;;;;;;;5.60;4.15;;;;;;;23.45;56.44;100312.09;5569366;32;34433;-57
2023/05/24 14:50:07;;;;;;;6.55;4.18;;;;;;;23.48;55.16;100312.50;5569165;32;33610;-57
2023/05/24 14:53:12;;;;;;;7.07;4.75;;;;;;;23.50;55.86;100318.41;5569189;32;33615;-57
2023/05/24 14:56:15;;;;;;;7.70;4.53;;;;;;;23.46;56.22;100315.63;5568104;32;33736;-57
2023/05/24 14:59:18;;;;;;;6.93;4.57;;;;;;;23.51;55.04;100325.44;5569101;32;33705;-57
2023/05/24 15:02:20;;;;;;;6.57;4.45;;;;;;;23.52;55.12;100329.78;5568881;32;34423;-56
2023/05/24 15:05:23;;;;;;;7.97;4.47;;;;;;;23.54;56.03;100324.72;5568623;32;33748;-57
2023/05/24 15:08:25;;;;;;;4.90;4.07;;;;;;;23.47;55.05;100330.88;5568887;32;34386;-57
2023/05/24 15:11:28;;;;;;;6.82;4.90;;;;;;;23.31;55.79;100328.31;5569055;32;33657;-57
2023/05/24 15:14:30;;;;;;;5.37;3.90;;;;;;;23.15;56.29;100338.59;5568690;32;34464;-57
2023/05/24 15:17:33;;;;;;;7.07;4.65;;;;;;;23.17;55.27;100336.28;5568876;32;33741;-56
